aviador You're here:

KRKP Decoded Metar

ROCKPORT in TX, USA
Report Time2018-07-17 00:53:00
UTC Time2018-07-17 01:54:23
Flight Rules vfr VFR
Wind150° at 11 Gusting to 18 kt
W.Decomp.*RWY 14: 11.0 kt HW 0.8 kt RCW
RWY 18: 8.9 kt HW 6.5 kt LCW
W.Rank150° ranks 1
Current wind is above 150° avg. (9.5)
Visibility9656 m
Phenomena:Haze
Clouds:N/A
Expected CloudBase > 2,000 ft AGL from Temp-Dew spread
CeilingNone
Temp29°C (ISA +14)
Dew Point24°C (74% RH)
Heat Index33.5°C
QNH1016 hPa
Density Alt1,923 ft
Elevation20 ft
Report Wrong Elevation
Raw Report
KRKP 170053Z AUTO 15011G18KT 6SM HZ CLR 29/24 A2999 RMK AO2 SLP157
T02890244=

Extra information for KRKP:More info

Metar Taf Metar & Taf Last 4 Metars F.Rules Stats Wind Profile Meteogram Temp Stats Airport Information Weather charts Add Link Nearby VenuesMetar ALERT Operation Metar Decoded Social comments

AIRNAV info for KRKP